Time;durP1;ratioP1;P1;durP2;ratioP2;P2;SDS_P1;SDS_P2;PMS_P1;PMS_P2;Temp;Humidity;BMP_temperature;BMP_pressure;BME280_temperature;BME280_humidity;BME280_pressure;Samples;Min_cycle;Max_cycle;Signal;HPM_P1;HPM_P2
2022/12/02 00:01:59;;;;;;;39.47;17.42;;;;;;;4.99;81.12;102009.97;5037325;28;21087;-66
2022/12/02 00:04:27;;;;;;;40.35;18.13;;;;;;;4.97;81.23;102011.59;5036478;28;20094;-66
2022/12/02 00:06:55;;;;;;;34.90;17.35;;;;;;;4.94;81.74;102007.25;5038256;28;20037;-66
2022/12/02 00:09:24;;;;;;;40.38;18.52;;;;;;;4.92;81.58;102006.31;5033595;28;20067;-66
2022/12/02 00:11:49;;;;;;;36.28;17.67;;;;;;;4.90;81.53;102001.97;5035173;28;20523;-67
2022/12/02 00:14:22;;;;;;;39.35;17.45;;;;;;;4.87;80.69;101999.28;5052494;28;20036;-62
2022/12/02 00:16:48;;;;;;;37.22;17.70;;;;;;;4.85;80.17;101998.38;5037191;28;20094;-63
2022/12/02 00:19:13;;;;;;;35.20;16.48;;;;;;;4.85;80.36;102006.94;5033147;28;20167;-62
2022/12/02 00:21:38;;;;;;;38.97;16.17;;;;;;;4.85;80.95;101995.81;5034494;28;20053;-62
2022/12/02 00:24:04;;;;;;;34.67;16.55;;;;;;;4.82;80.45;101986.34;5030078;28;20128;-62
2022/12/02 00:26:30;;;;;;;32.53;16.77;;;;;;;4.83;81.48;101989.78;5038241;28;20396;-62
2022/12/02 00:28:55;;;;;;;37.55;16.92;;;;;;;4.81;80.98;101986.28;5033329;28;20041;-62
2022/12/02 00:31:20;;;;;;;37.03;17.75;;;;;;;4.80;81.19;101989.66;5040831;28;20152;-62
2022/12/02 00:33:46;;;;;;;34.85;16.63;;;;;;;4.80;80.39;101988.00;5036701;28;20141;-62
2022/12/02 00:36:11;;;;;;;32.47;15.38;;;;;;;4.80;81.57;101992.22;5041206;28;20628;-62
2022/12/02 00:38:36;;;;;;;35.15;16.23;;;;;;;4.78;80.24;101988.72;5055706;28;20055;-62
2022/12/02 00:41:02;;;;;;;32.33;15.82;;;;;;;4.77;79.62;101989.56;5025505;28;20049;-62
2022/12/02 00:48:55;;;;;;;30.60;15.57;;;;;;;4.77;78.63;101980.19;5023154;28;20466;-67
2022/12/02 00:51:21;;;;;;;34.88;16.60;;;;;;;4.76;79.19;101978.44;5033110;28;20033;-66
2022/12/02 00:53:46;;;;;;;32.78;16.48;;;;;;;4.76;79.13;101975.00;5036038;28;20037;-66
2022/12/02 00:56:12;;;;;;;55.47;19.10;;;;;;;4.75;79.62;101969.00;5030631;28;20034;-66
2022/12/02 00:58:37;;;;;;;29.95;15.82;;;;;;;4.74;80.56;101968.97;5036805;28;20152;-66
2022/12/02 01:01:02;;;;;;;33.50;16.50;;;;;;;4.74;80.42;101969.84;5034028;28;20414;-67
2022/12/02 01:03:28;;;;;;;33.22;15.63;;;;;;;4.73;81.14;101970.66;5028990;28;20105;-66
2022/12/02 01:05:53;;;;;;;35.58;16.17;;;;;;;4.70;81.59;101979.91;5033829;28;20045;-65
2022/12/02 01:08:21;;;;;;;32.50;16.40;;;;;;;4.68;81.37;101981.56;5037197;28;20318;-66
2022/12/02 01:10:46;;;;;;;34.50;16.83;;;;;;;4.68;81.99;101976.44;5026268;28;20095;-66
2022/12/02 01:13:12;;;;;;;36.05;16.90;;;;;;;4.63;81.48;101971.16;5030251;28;20060;-66
2022/12/02 01:15:37;;;;;;;37.60;17.30;;;;;;;4.57;80.94;101970.94;5036116;28;20061;-66
2022/12/02 01:18:02;;;;;;;32.67;16.45;;;;;;;4.55;80.83;101965.78;5028112;28;20051;-66
2022/12/02 01:20:28;;;;;;;34.70;16.80;;;;;;;4.52;80.57;101963.09;5026504;28;20522;-66
2022/12/02 01:22:53;;;;;;;31.77;16.02;;;;;;;4.48;81.08;101962.91;5044531;28;20040;-67
2022/12/02 01:25:19;;;;;;;33.53;16.33;;;;;;;4.47;82.06;101971.44;5050236;28;20036;-66
2022/12/02 01:27:44;;;;;;;38.17;17.98;;;;;;;4.44;81.17;101979.00;5049340;28;20042;-66
2022/12/02 01:30:10;;;;;;;30.48;15.73;;;;;;;4.42;81.12;101981.50;5050137;28;20800;-66
2022/12/02 01:32:36;;;;;;;35.95;17.05;;;;;;;4.40;82.29;101979.72;5055917;28;20040;-66
2022/12/02 01:35:01;;;;;;;30.77;14.95;;;;;;;4.38;81.50;101981.34;5050660;28;20043;-66
2022/12/02 01:37:26;;;;;;;31.02;15.73;;;;;;;4.34;81.71;101976.94;5051398;28;20040;-66
2022/12/02 01:39:52;;;;;;;34.67;16.38;;;;;;;4.33;81.33;101980.31;5048918;28;20071;-67
2022/12/02 01:42:18;;;;;;;33.92;16.83;;;;;;;4.31;81.69;101972.56;5049968;28;20838;-66
2022/12/02 01:44:43;;;;;;;34.50;16.10;;;;;;;4.31;81.73;101982.81;5050539;28;20119;-66
2022/12/02 01:47:08;;;;;;;33.20;16.10;;;;;;;4.27;82.58;101967.31;5046210;28;20485;-66
2022/12/02 01:49:34;;;;;;;29.42;14.68;;;;;;;4.24;81.66;101967.19;5049057;28;20036;-66
2022/12/02 01:51:59;;;;;;;32.90;15.30;;;;;;;4.22;82.18;101963.69;5044546;28;20146;-66
2022/12/02 01:54:33;;;;;;;37.15;17.40;;;;;;;4.19;82.66;101961.91;5049339;28;20649;-66
2022/12/02 01:56:58;;;;;;;35.17;16.73;;;;;;;4.19;81.52;101963.56;5047804;28;20027;-65
2022/12/02 01:59:25;;;;;;;35.05;16.80;;;;;;;4.19;81.58;101966.13;5050571;28;20029;-66
2022/12/02 02:01:50;;;;;;;33.45;16.33;;;;;;;4.19;81.57;101976.38;5043860;28;20761;-66
2022/12/02 02:04:17;;;;;;;32.15;15.15;;;;;;;4.19;81.50;101973.81;5053875;28;20093;-66
2022/12/02 02:06:45;;;;;;;29.30;14.05;;;;;;;4.20;81.67;101968.78;5050602;28;20071;-66
2022/12/02 02:09:10;;;;;;;34.85;16.65;;;;;;;4.20;81.96;101965.31;5047865;28;20047;-66
2022/12/02 02:11:37;;;;;;;29.52;14.70;;;;;;;4.21;82.24;101964.53;5041533;28;20021;-67
2022/12/02 02:14:04;;;;;;;31.65;15.30;;;;;;;4.19;82.14;101964.47;5041215;28;20502;-66
2022/12/02 02:16:30;;;;;;;32.00;15.85;;;;;;;4.19;82.88;101956.78;5047110;28;20025;-66
2022/12/02 02:18:56;;;;;;;37.53;15.27;;;;;;;4.21;82.98;101965.38;5038886;28;20047;-66
2022/12/02 02:21:28;;;;;;;32.30;14.88;;;;;;;4.23;82.56;101965.44;5046756;28;20032;-66
2022/12/02 02:23:53;;;;;;;33.53;16.30;;;;;;;4.21;83.27;101962.81;5048473;28;20056;-65
2022/12/02 02:26:19;;;;;;;30.10;14.57;;;;;;;4.19;83.45;101949.09;5054267;28;20120;-66
2022/12/02 02:28:44;;;;;;;28.25;14.02;;;;;;;4.22;83.35;101943.22;5047874;28;20149;-66
2022/12/02 02:31:10;;;;;;;29.70;14.70;;;;;;;4.22;81.46;101954.31;5054046;28;20734;-66
2022/12/02 02:33:37;;;;;;;27.90;13.68;;;;;;;4.26;80.88;101945.09;5044472;28;20068;-66
2022/12/02 02:36:04;;;;;;;24.95;12.75;;;;;;;4.26;80.00;101945.09;5048084;28;20033;-66
2022/12/02 02:38:30;;;;;;;23.13;11.82;;;;;;;4.27;79.36;101940.00;5048757;28;20520;-66
2022/12/02 02:40:56;;;;;;;25.58;12.55;;;;;;;4.29;78.96;101937.50;5050292;28;20045;-66
2022/12/02 02:43:25;;;;;;;24.92;12.80;;;;;;;4.30;79.48;101945.22;5050980;28;20711;-66
2022/12/02 02:45:52;;;;;;;24.33;12.05;;;;;;;4.31;79.15;101946.09;5048984;28;20037;-67
2022/12/02 02:48:18;;;;;;;22.33;11.50;;;;;;;4.30;78.23;101939.25;5055735;28;20037;-66
2022/12/02 02:50:46;;;;;;;23.85;12.45;;;;;;;4.30;79.30;101929.88;5055287;28;20547;-66
2022/12/02 02:53:13;;;;;;;24.67;13.00;;;;;;;4.32;78.82;101933.38;5059145;28;20048;-66
2022/12/02 02:55:39;;;;;;;25.77;12.63;;;;;;;4.31;79.87;101930.75;5055338;28;20036;-66
2022/12/02 02:58:16;;;;;;;27.55;13.10;;;;;;;4.32;80.29;101929.94;5051101;28;20084;-66
2022/12/02 03:00:44;;;;;;;25.42;12.88;;;;;;;4.31;79.39;101916.28;5057743;28;20772;-66
2022/12/02 03:03:13;;;;;;;24.50;12.38;;;;;;;4.32;80.37;101920.59;5060509;28;20028;-66
2022/12/02 03:05:39;;;;;;;25.67;12.30;;;;;;;4.32;79.45;101915.47;5055073;28;20098;-66
2022/12/02 03:08:06;;;;;;;23.38;12.32;;;;;;;4.35;79.35;101919.81;5062339;28;20128;-66
2022/12/02 03:10:32;;;;;;;24.02;12.23;;;;;;;4.35;79.50;101912.13;5056869;28;22461;-66
2022/12/02 03:12:58;;;;;;;28.55;13.73;;;;;;;4.36;80.06;101906.22;5049532;28;20047;-66
2022/12/02 03:15:26;;;;;;;28.25;13.85;;;;;;;4.35;79.90;101909.56;5046014;28;20040;-66
2022/12/02 03:17:52;;;;;;;27.00;14.02;;;;;;;4.33;80.05;101913.78;5062833;28;20086;-66
2022/12/02 03:20:18;;;;;;;26.88;14.32;;;;;;;4.34;80.12;101913.81;5061449;28;20067;-66
2022/12/02 03:22:43;;;;;;;27.52;14.88;;;;;;;4.33;80.72;101906.09;5050193;28;20155;-66
2022/12/02 03:25:09;;;;;;;30.17;13.98;;;;;;;4.34;79.66;101911.25;5051216;28;20553;-66
2022/12/02 03:27:35;;;;;;;27.85;12.63;;;;;;;4.33;79.96;101904.38;5054439;28;20421;-66
2022/12/02 03:30:01;;;;;;;24.85;12.13;;;;;;;4.33;80.17;101906.94;5055980;28;20028;-65
2022/12/02 03:32:26;;;;;;;26.55;14.00;;;;;;;4.34;79.81;101907.81;5042024;28;20057;-66
2022/12/02 03:34:52;;;;;;;31.75;14.88;;;;;;;4.32;80.60;101902.66;5038726;28;20059;-66
2022/12/02 03:37:18;;;;;;;30.45;15.52;;;;;;;4.32;80.79;101902.66;5041528;28;20033;-66
2022/12/02 03:39:44;;;;;;;30.10;15.18;;;;;;;4.31;80.70;101895.81;5037696;28;20040;-66
2022/12/02 03:42:10;;;;;;;31.83;15.85;;;;;;;4.30;80.27;101894.03;5040082;28;20041;-66
2022/12/02 03:44:35;;;;;;;30.00;14.73;;;;;;;4.27;80.07;101886.25;5057563;28;20124;-66
2022/12/02 03:47:02;;;;;;;25.02;12.95;;;;;;;4.28;80.27;101893.13;5061836;28;20040;-66
2022/12/02 03:49:28;;;;;;;30.35;14.45;;;;;;;4.26;80.85;101889.66;5038982;28;20040;-66
2022/12/02 03:51:53;;;;;;;28.15;13.57;;;;;;;4.27;81.44;101893.94;5037155;28;20044;-66
2022/12/02 03:54:19;;;;;;;26.27;13.95;;;;;;;4.30;80.72;101895.75;5042435;28;20033;-66
2022/12/02 03:56:44;;;;;;;31.98;14.18;;;;;;;4.30;80.82;101888.94;5036886;28;20112;-66
2022/12/02 03:59:17;;;;;;;27.67;13.95;;;;;;;4.31;80.38;101882.13;5032733;28;20154;-66
2022/12/02 04:01:42;;;;;;;28.35;13.57;;;;;;;4.29;81.68;101876.97;5031654;28;20050;-66
2022/12/02 04:04:08;;;;;;;29.60;14.23;;;;;;;4.28;81.92;101872.66;5034836;28;20037;-66
2022/12/02 04:06:33;;;;;;;28.45;13.98;;;;;;;4.32;81.54;101871.09;5034474;28;20511;-66
2022/12/02 04:08:59;;;;;;;30.73;15.70;;;;;;;4.30;81.34;101865.91;5033172;28;20029;-65
2022/12/02 04:11:24;;;;;;;31.38;14.65;;;;;;;4.31;81.43;101864.22;5031253;28;20612;-66
2022/12/02 04:13:49;;;;;;;31.30;14.60;;;;;;;4.29;81.46;101860.75;5044226;28;20045;-66
2022/12/02 04:16:15;;;;;;;29.20;15.48;;;;;;;4.29;81.23;101853.94;5041065;28;20033;-66
2022/12/02 04:18:40;;;;;;;28.05;13.90;;;;;;;4.29;81.26;101851.38;5035533;28;20045;-66
2022/12/02 04:21:05;;;;;;;31.65;15.13;;;;;;;4.31;80.86;101842.06;5047109;28;20646;-65
2022/12/02 04:23:31;;;;;;;33.53;15.82;;;;;;;4.29;80.85;101838.59;5054654;28;20044;-66
2022/12/02 04:25:56;;;;;;;31.10;18.50;;;;;;;4.29;81.38;101851.38;5051978;28;20463;-66
2022/12/02 04:28:21;;;;;;;32.67;16.40;;;;;;;4.28;80.54;101839.38;5046363;28;20036;-66
2022/12/02 04:30:47;;;;;;;32.05;16.55;;;;;;;4.28;81.70;101835.97;5048494;28;20052;-66
2022/12/02 04:33:12;;;;;;;35.90;18.33;;;;;;;4.27;81.01;101835.06;5056304;28;20036;-66
2022/12/02 04:35:38;;;;;;;37.00;19.73;;;;;;;4.28;81.17;101836.84;5054484;28;20039;-66
2022/12/02 04:38:03;;;;;;;42.03;26.95;;;;;;;4.29;80.77;101838.59;5051546;28;20043;-66
2022/12/02 04:40:29;;;;;;;32.65;17.63;;;;;;;4.30;81.42;101839.47;5045380;28;20044;-66
2022/12/02 04:42:57;;;;;;;35.15;20.10;;;;;;;4.32;81.84;101838.69;5048486;28;20048;-66
2022/12/02 04:45:22;;;;;;;40.53;18.17;;;;;;;4.31;81.16;101839.50;5052441;28;20033;-66
2022/12/02 04:47:48;;;;;;;36.45;18.50;;;;;;;4.30;81.68;101842.03;5048271;28;20041;-66
2022/12/02 04:50:13;;;;;;;48.63;31.27;;;;;;;4.29;81.38;101843.69;5052303;28;20071;-66
2022/12/02 04:52:39;;;;;;;32.83;17.25;;;;;;;4.27;81.87;101832.53;5048336;28;20037;-66
2022/12/02 04:55:05;;;;;;;34.83;16.60;;;;;;;4.30;81.67;101839.47;5052536;28;20730;-66
2022/12/02 04:57:30;;;;;;;31.15;15.40;;;;;;;4.29;81.59;101841.13;5051744;28;20028;-66
2022/12/02 04:59:56;;;;;;;32.40;16.08;;;;;;;4.31;82.30;101836.94;5056446;28;20058;-65
2022/12/02 05:02:21;;;;;;;41.17;18.15;;;;;;;4.33;81.44;101840.41;5045424;28;20522;-67
2022/12/02 05:04:47;;;;;;;34.92;16.90;;;;;;;4.32;81.61;101833.56;5058147;28;20105;-66
2022/12/02 05:07:12;;;;;;;35.30;16.10;;;;;;;4.33;82.06;101834.44;5052213;28;20131;-66
2022/12/02 05:09:37;;;;;;;31.45;16.73;;;;;;;4.36;82.16;101837.94;5050106;28;20113;-66
2022/12/02 05:12:03;;;;;;;36.95;16.98;;;;;;;4.36;81.72;101837.94;5048393;28;20075;-65
2022/12/02 05:14:31;;;;;;;33.88;17.10;;;;;;;4.35;82.49;101833.66;5051947;28;20032;-66
2022/12/02 05:16:56;;;;;;;39.67;18.52;;;;;;;4.32;82.19;101831.00;5056834;28;20094;-66
2022/12/02 05:19:22;;;;;;;31.20;16.80;;;;;;;4.34;81.82;101825.94;5050174;28;20037;-66
2022/12/02 05:21:47;;;;;;;35.60;18.13;;;;;;;4.33;82.58;101826.78;5049120;28;20044;-66
2022/12/02 05:24:12;;;;;;;40.00;20.20;;;;;;;4.35;81.67;101828.56;5050613;28;20040;-66
2022/12/02 05:26:38;;;;;;;39.40;18.52;;;;;;;4.35;81.94;101826.00;5053012;28;20044;-67
2022/12/02 05:29:04;;;;;;;39.95;17.52;;;;;;;4.32;82.59;101828.44;5047874;28;20033;-67
2022/12/02 05:31:30;;;;;;;38.47;17.83;;;;;;;4.30;82.03;101822.38;5034745;28;20194;-67
2022/12/02 05:33:55;;;;;;;36.85;17.02;;;;;;;4.30;82.18;101819.81;5046084;28;20514;-66
2022/12/02 05:36:21;;;;;;;37.17;17.20;;;;;;;4.31;83.00;101818.16;5052163;28;20699;-66
2022/12/02 05:38:46;;;;;;;39.80;17.75;;;;;;;4.31;82.53;101819.03;5049890;28;20067;-66
2022/12/02 05:41:14;;;;;;;33.75;16.52;;;;;;;4.32;82.74;101817.34;5049852;28;20815;-66
2022/12/02 05:43:42;;;;;;;36.75;17.73;;;;;;;4.31;82.24;101816.47;5042301;28;20658;-66
2022/12/02 05:46:19;;;;;;;41.15;17.38;;;;;;;4.27;82.67;101824.00;5054978;28;20037;-67
2022/12/02 05:48:46;;;;;;;35.60;18.05;;;;;;;4.25;82.41;101821.38;5051898;28;20116;-66
2022/12/02 05:51:17;;;;;;;40.10;19.90;;;;;;;4.23;82.71;101815.34;5050712;28;20844;-66
2022/12/02 05:53:45;;;;;;;37.58;17.27;;;;;;;4.24;82.25;101813.66;5054012;28;20158;-66
2022/12/02 05:56:30;;;;;;;41.15;20.23;;;;;;;4.21;82.27;101816.94;5049663;28;20032;-66
2022/12/02 05:59:04;;;;;;;44.22;19.85;;;;;;;4.22;82.49;101818.72;5054048;28;20037;-66
2022/12/02 06:01:36;;;;;;;40.13;19.60;;;;;;;4.21;83.21;101819.50;5051065;28;20032;-66
2022/12/02 06:04:03;;;;;;;40.08;19.70;;;;;;;4.24;82.95;101805.97;5047721;28;20903;-67
2022/12/02 06:06:33;;;;;;;39.65;18.23;;;;;;;4.25;82.77;101802.59;5048686;28;20044;-66
2022/12/02 06:08:59;;;;;;;43.25;19.60;;;;;;;4.23;82.17;101805.09;5036526;28;20060;-65
2022/12/02 06:11:37;;;;;;;44.03;19.20;;;;;;;4.26;82.79;101815.44;5051188;28;20074;-67
2022/12/02 06:14:16;;;;;;;38.78;17.77;;;;;;;4.26;83.15;101817.13;5052831;28;20989;-67
2022/12/02 06:16:46;;;;;;;42.33;19.10;;;;;;;4.23;83.32;101820.47;5041420;28;20040;-67
2022/12/02 06:19:34;;;;;;;45.10;20.02;;;;;;;4.24;83.32;101816.22;5041147;28;20672;-67
2022/12/02 06:22:00;;;;;;;43.50;19.10;;;;;;;4.23;84.01;101812.78;5045999;28;20670;-67
2022/12/02 06:24:32;;;;;;;41.28;18.25;;;;;;;4.26;83.50;101812.00;5081931;28;20143;-67
2022/12/02 06:27:00;;;;;;;43.10;18.65;;;;;;;4.27;83.51;101800.97;5054613;28;20037;-67
2022/12/02 06:29:28;;;;;;;50.55;21.08;;;;;;;4.23;83.24;101801.66;5058460;28;20132;-67
2022/12/02 06:31:55;;;;;;;47.00;22.63;;;;;;;4.23;83.14;101806.78;5055434;28;20040;-67
2022/12/02 06:34:38;;;;;;;68.68;26.85;;;;;;;4.19;83.89;101798.13;5058930;28;20037;-67
2022/12/02 06:37:21;;;;;;;67.65;27.23;;;;;;;4.20;83.43;101801.56;5044331;28;20040;-67
2022/12/02 06:39:49;;;;;;;55.75;26.63;;;;;;;4.19;84.46;101803.25;5053683;28;20037;-67
2022/12/02 06:42:21;;;;;;;53.28;22.10;;;;;;;4.22;84.02;101805.03;5050707;28;20047;-67
2022/12/02 06:45:04;;;;;;;49.10;20.00;;;;;;;4.19;84.67;101805.81;5048698;28;20040;-67
2022/12/02 06:47:35;;;;;;;55.83;21.15;;;;;;;4.19;83.89;101797.25;5053062;28;20132;-67
2022/12/02 06:50:04;;;;;;;51.78;21.33;;;;;;;4.18;83.97;101806.63;5033829;28;20794;-67
2022/12/02 06:52:33;;;;;;;49.97;19.95;;;;;;;4.18;84.25;101801.50;5030019;28;20095;-67
2022/12/02 06:54:59;;;;;;;51.90;19.33;;;;;;;4.17;84.15;101804.91;5044961;28;20040;-67
2022/12/02 06:57:24;;;;;;;50.65;19.48;;;;;;;4.19;84.34;101795.56;5053708;28;20072;-67
2022/12/02 06:59:51;;;;;;;52.10;20.60;;;;;;;4.21;83.74;101799.03;5048905;28;20063;-68
2022/12/02 07:02:29;;;;;;;44.15;18.75;;;;;;;4.23;83.90;101796.56;5054814;28;20143;-68
2022/12/02 07:04:55;;;;;;;49.42;18.58;;;;;;;4.24;84.21;101795.75;5048421;28;20048;-67
2022/12/02 07:07:26;;;;;;;49.58;20.02;;;;;;;4.25;83.35;101803.47;5043948;28;20048;-68
2022/12/02 07:09:54;;;;;;;45.35;19.23;;;;;;;4.23;83.54;101794.88;5048456;28;20049;-68
2022/12/02 07:12:23;;;;;;;48.05;20.58;;;;;;;4.23;84.24;101796.56;5051402;28;20097;-67
2022/12/02 07:14:51;;;;;;;48.97;18.65;;;;;;;4.24;83.93;101786.34;5055824;28;20028;-68
2022/12/02 07:17:34;;;;;;;52.90;22.05;;;;;;;4.26;83.37;101787.28;5058008;28;20709;-68
2022/12/02 07:20:06;;;;;;;52.10;25.90;;;;;;;4.29;83.52;101800.19;5052928;28;20046;-67
2022/12/02 07:22:34;;;;;;;49.30;22.75;;;;;;;4.25;83.61;101793.22;5044057;28;20501;-68
2022/12/02 07:25:08;;;;;;;50.40;22.55;;;;;;;4.25;83.37;101800.03;5053084;28;20128;-68
2022/12/02 07:27:40;;;;;;;48.00;19.13;;;;;;;4.27;83.56;101799.25;5059579;28;20132;-68
2022/12/02 07:30:34;;;;;;;47.65;20.27;;;;;;;4.28;83.96;101800.13;5057269;28;20212;-68
2022/12/02 07:33:00;;;;;;;46.38;19.67;;;;;;;4.27;84.06;101798.41;5052425;28;20644;-66
2022/12/02 07:35:26;;;;;;;47.17;18.67;;;;;;;4.30;84.12;101807.03;5055386;28;20571;-68
2022/12/02 07:37:51;;;;;;;48.10;19.92;;;;;;;4.32;83.82;101799.41;5055489;28;20040;-68
2022/12/02 07:40:18;;;;;;;51.03;20.45;;;;;;;4.29;84.31;101807.88;5052262;28;20036;-67
2022/12/02 07:42:44;;;;;;;54.53;21.70;;;;;;;4.27;83.46;101798.41;5056659;28;20052;-67
2022/12/02 07:45:11;;;;;;;54.13;19.30;;;;;;;4.30;83.84;101795.94;5058550;28;20516;-67
2022/12/02 07:47:36;;;;;;;54.15;20.73;;;;;;;4.29;84.58;101801.88;5055163;28;20486;-68
2022/12/02 07:50:02;;;;;;;52.72;21.98;;;;;;;4.25;84.08;101792.34;5060849;28;20040;-68
2022/12/02 07:52:28;;;;;;;55.30;22.05;;;;;;;4.22;84.47;101794.81;5052312;28;20033;-68
2022/12/02 07:54:53;;;;;;;54.58;21.05;;;;;;;4.19;84.78;101787.91;5039469;28;20087;-68
2022/12/02 07:57:19;;;;;;;58.35;26.45;;;;;;;4.20;84.97;101791.34;5060114;28;20037;-67
2022/12/02 07:59:45;;;;;;;60.15;23.70;;;;;;;4.19;84.95;101785.34;5060046;28;20036;-68
2022/12/02 08:02:10;;;;;;;56.78;23.05;;;;;;;4.16;86.08;101784.34;5055296;28;20052;-67
2022/12/02 08:04:36;;;;;;;55.92;22.23;;;;;;;4.17;85.36;101783.56;5055509;28;20048;-68
2022/12/02 08:07:01;;;;;;;57.78;22.73;;;;;;;4.19;85.70;101785.34;5047578;28;20215;-68
2022/12/02 08:09:26;;;;;;;59.83;22.58;;;;;;;4.20;85.37;101779.41;5038739;28;20036;-68
2022/12/02 08:11:52;;;;;;;59.38;22.73;;;;;;;4.22;85.48;101784.56;5055194;28;20040;-68
2022/12/02 08:14:17;;;;;;;62.50;21.55;;;;;;;4.23;85.75;101788.88;5055910;28;20060;-68
2022/12/02 08:16:43;;;;;;;54.78;20.25;;;;;;;4.23;86.02;101782.06;5059587;28;20040;-68
2022/12/02 08:19:08;;;;;;;53.85;22.38;;;;;;;4.28;85.82;101780.53;5055854;28;20024;-68
2022/12/02 08:21:33;;;;;;;66.60;23.67;;;;;;;4.29;86.01;101783.97;5055817;28;20045;-68
2022/12/02 08:23:59;;;;;;;65.78;24.27;;;;;;;4.30;85.91;101786.56;5056437;28;20032;-67
2022/12/02 08:26:26;;;;;;;68.85;23.85;;;;;;;4.31;86.28;101777.19;5059765;28;20059;-69
2022/12/02 08:28:55;;;;;;;61.33;24.60;;;;;;;4.35;86.22;101777.38;5053165;28;20394;-68
2022/12/02 08:31:20;;;;;;;66.45;24.00;;;;;;;4.37;86.79;101780.84;5055971;28;20062;-68
2022/12/02 08:33:46;;;;;;;61.42;23.38;;;;;;;4.40;86.14;101778.38;5057758;28;20131;-68
2022/12/02 08:36:11;;;;;;;57.15;21.98;;;;;;;4.40;85.90;101778.38;5057266;28;20029;-68
2022/12/02 08:38:37;;;;;;;65.65;23.98;;;;;;;4.39;86.50;101774.06;5062577;28;20397;-68
2022/12/02 08:41:03;;;;;;;59.65;24.63;;;;;;;4.39;86.84;101779.19;5064584;28;20116;-68
2022/12/02 08:43:28;;;;;;;60.78;24.13;;;;;;;4.38;86.13;101782.59;5064164;28;20540;-68
2022/12/02 08:45:54;;;;;;;69.55;26.77;;;;;;;4.36;86.13;101771.41;5063577;28;20151;-69
2022/12/02 08:48:19;;;;;;;68.25;25.50;;;;;;;4.34;86.22;101774.75;5059923;28;20445;-68
2022/12/02 08:50:44;;;;;;;65.50;25.60;;;;;;;4.33;86.95;101773.03;5050855;28;20071;-67
2022/12/02 08:53:10;;;;;;;69.85;25.65;;;;;;;4.35;86.60;101774.81;5055148;28;20047;-68
2022/12/02 08:55:35;;;;;;;65.45;24.25;;;;;;;4.39;87.49;101775.78;5057429;28;20075;-68
2022/12/02 08:58:00;;;;;;;62.10;23.08;;;;;;;4.41;87.29;101775.00;5057361;28;20044;-68
2022/12/02 09:00:26;;;;;;;63.28;25.10;;;;;;;4.45;87.20;101775.94;5058817;28;20127;-68
2022/12/02 09:02:51;;;;;;;64.22;25.13;;;;;;;4.46;86.13;101780.25;5054937;28;20032;-68
2022/12/02 09:05:22;;;;;;;63.28;23.83;;;;;;;4.44;86.48;101776.78;5056092;28;20135;-68
2022/12/02 09:07:48;;;;;;;64.53;25.05;;;;;;;4.40;86.97;101791.16;5050558;28;20762;-68
2022/12/02 09:10:14;;;;;;;56.90;22.08;;;;;;;4.40;86.64;101780.06;5055056;28;20048;-68
2022/12/02 09:12:40;;;;;;;65.80;24.65;;;;;;;4.37;86.54;101780.84;5049060;28;20775;-68
2022/12/02 09:15:06;;;;;;;60.95;23.33;;;;;;;4.42;87.42;101783.53;5060191;28;20712;-67
2022/12/02 09:17:34;;;;;;;59.30;22.75;;;;;;;4.48;87.22;101782.03;5052756;28;20112;-68
2022/12/02 09:19:59;;;;;;;60.63;23.23;;;;;;;4.51;86.85;101776.16;5054144;28;20029;-68
2022/12/02 09:22:25;;;;;;;69.57;29.40;;;;;;;4.52;87.29;101786.44;5056705;28;20449;-68
2022/12/02 09:24:50;;;;;;;68.07;25.70;;;;;;;4.52;86.88;101781.34;5058919;28;20041;-68
2022/12/02 09:27:15;;;;;;;66.18;31.52;;;;;;;4.49;87.48;101781.22;5058357;28;20746;-68
2022/12/02 09:29:41;;;;;;;79.85;35.38;;;;;;;4.47;87.64;101782.88;5057204;28;20500;-68
2022/12/02 09:32:06;;;;;;;69.78;26.05;;;;;;;4.48;87.57;101783.72;5059364;28;20749;-68
2022/12/02 09:34:31;;;;;;;63.22;24.45;;;;;;;4.48;87.65;101781.16;5050140;28;20120;-68
2022/12/02 09:36:57;;;;;;;66.00;25.75;;;;;;;4.46;87.92;101778.56;5052691;28;20040;-66
2022/12/02 09:39:25;;;;;;;64.78;25.85;;;;;;;4.50;87.92;101777.88;5055961;28;20036;-66
2022/12/02 09:41:51;;;;;;;72.63;26.08;;;;;;;4.52;87.94;101772.78;5059490;28;20043;-68
2022/12/02 09:44:16;;;;;;;68.25;24.80;;;;;;;4.53;88.11;101774.53;5053771;28;20037;-67
2022/12/02 09:46:41;;;;;;;65.10;25.67;;;;;;;4.58;87.64;101775.53;5053164;28;20746;-66
2022/12/02 09:49:07;;;;;;;75.28;26.65;;;;;;;4.58;87.54;101771.28;5049384;28;20060;-66
2022/12/02 09:51:32;;;;;;;69.13;26.48;;;;;;;4.61;86.89;101766.25;5050889;28;20025;-66
2022/12/02 09:53:59;;;;;;;70.57;27.33;;;;;;;4.68;86.99;101767.34;5057228;28;20044;-66
2022/12/02 09:56:24;;;;;;;66.18;25.33;;;;;;;4.72;86.72;101764.03;5056748;28;20032;-67
2022/12/02 09:58:53;;;;;;;67.50;25.85;;;;;;;4.74;86.72;101762.41;5058864;28;20040;-66
2022/12/02 10:01:18;;;;;;;63.63;25.40;;;;;;;4.73;86.71;101764.91;5046620;28;21120;-66
2022/12/02 10:03:46;;;;;;;66.22;24.13;;;;;;;4.74;86.41;101764.97;5050364;28;20105;-68
2022/12/02 10:06:16;;;;;;;65.15;24.88;;;;;;;4.75;86.27;101756.44;5032867;28;20120;-67
2022/12/02 10:08:42;;;;;;;54.70;25.25;;;;;;;4.78;86.31;101759.09;5034135;28;20047;-67
2022/12/02 10:11:36;;;;;;;66.22;28.58;;;;;;;4.82;86.17;101760.06;5030787;28;20032;-68
2022/12/02 10:14:05;;;;;;;69.78;31.10;;;;;;;4.86;86.05;101756.78;5043661;28;20545;-67
2022/12/02 10:16:33;;;;;;;66.32;27.98;;;;;;;4.85;85.76;101755.03;5054578;28;20778;-67
2022/12/02 10:19:01;;;;;;;61.65;25.67;;;;;;;4.84;85.96;101748.16;5045727;28;20901;-67
2022/12/02 10:21:26;;;;;;;57.40;26.08;;;;;;;4.87;86.41;101755.94;5035428;28;20032;-67
2022/12/02 10:23:58;;;;;;;65.93;24.80;;;;;;;4.89;86.32;101755.19;5054520;28;20781;-67
2022/12/02 10:26:24;;;;;;;65.32;22.83;;;;;;;4.93;85.40;101751.00;5054407;28;20070;-68
2022/12/02 10:29:05;;;;;;;62.92;23.95;;;;;;;4.92;85.89;101752.69;5040178;28;20124;-67
2022/12/02 10:31:31;;;;;;;62.85;24.40;;;;;;;4.93;85.56;101741.63;5032948;28;20040;-67
2022/12/02 10:34:03;;;;;;;59.80;24.75;;;;;;;4.96;86.34;101741.72;5035202;28;20059;-67
2022/12/02 10:36:40;;;;;;;59.67;23.55;;;;;;;4.97;85.85;101740.03;5029876;28;20069;-67
2022/12/02 10:39:29;;;;;;;61.30;23.60;;;;;;;4.95;85.13;101736.56;5033818;28;20029;-67
2022/12/02 10:42:03;;;;;;;54.38;22.75;;;;;;;4.97;85.29;101735.78;5031566;28;20072;-66
2022/12/02 10:44:29;;;;;;;64.90;25.13;;;;;;;5.01;86.00;101727.34;5035988;28;20516;-67
2022/12/02 10:47:21;;;;;;;55.83;23.27;;;;;;;5.08;85.56;101731.84;5037885;28;20098;-67
2022/12/02 10:50:15;;;;;;;56.55;23.25;;;;;;;5.12;84.60;101726.00;5035765;28;20040;-67
2022/12/02 10:52:46;;;;;;;63.33;24.30;;;;;;;5.16;83.80;101725.22;5031801;28;20648;-67
2022/12/02 10:55:12;;;;;;;57.28;25.85;;;;;;;5.21;84.21;101721.13;5034378;28;20048;-67
2022/12/02 10:57:38;;;;;;;60.70;25.40;;;;;;;5.27;84.39;101720.44;5033817;28;20037;-69
2022/12/02 11:00:16;;;;;;;64.63;29.77;;;;;;;5.28;83.76;101719.56;5035335;28;20029;-67
2022/12/02 11:02:51;;;;;;;58.35;23.45;;;;;;;5.33;83.71;101714.59;5034807;28;20036;-67
2022/12/02 11:05:22;;;;;;;56.67;21.90;;;;;;;5.35;83.76;101716.38;5038467;28;20111;-67
2022/12/02 11:07:50;;;;;;;61.58;23.38;;;;;;;5.32;84.19;101716.28;5037843;28;20438;-67
2022/12/02 11:10:21;;;;;;;53.45;22.00;;;;;;;5.30;83.65;101715.38;5032592;28;20091;-68
2022/12/02 11:12:47;;;;;;;57.35;23.15;;;;;;;5.32;84.19;101713.72;5033760;28;20152;-68
2022/12/02 11:15:42;;;;;;;64.45;25.40;;;;;;;5.32;84.41;101711.16;5037058;28;22633;-68
2022/12/02 11:18:28;;;;;;;50.20;22.40;;;;;;;5.27;84.01;101704.19;5033626;28;20084;-67
2022/12/02 11:21:20;;;;;;;55.35;23.25;;;;;;;5.25;84.89;101703.28;5016104;28;20042;-66
2022/12/02 11:23:46;;;;;;;59.92;23.85;;;;;;;5.21;85.17;101703.19;5027850;28;20053;-67
2022/12/02 11:26:12;;;;;;;61.17;23.25;;;;;;;5.23;85.02;101704.09;5037037;28;20090;-68